sensor_id;sensor_type;location;lat;lon;timestamp;P1;durP1;ratioP1;P2;durP2;ratioP2
48987;SDS011;34799;51.440;-2.534;2023-07-31T00:00:46;1.27;;;0.30;;
48987;SDS011;34799;51.440;-2.534;2023-07-31T00:03:14;1.65;;;0.30;;
48987;SDS011;34799;51.440;-2.534;2023-07-31T00:05:41;0.90;;;0.30;;
48987;SDS011;34799;51.440;-2.534;2023-07-31T00:08:09;1.92;;;0.40;;
48987;SDS011;34799;51.440;-2.534;2023-07-31T00:10:36;1.42;;;0.30;;
48987;SDS011;34799;51.440;-2.534;2023-07-31T00:13:03;2.17;;;0.30;;
48987;SDS011;34799;51.440;-2.534;2023-07-31T00:15:30;0.95;;;0.30;;
48987;SDS011;34799;51.440;-2.534;2023-07-31T00:17:57;1.77;;;0.63;;
48987;SDS011;34799;51.440;-2.534;2023-07-31T00:20:24;0.65;;;0.20;;
48987;SDS011;34799;51.440;-2.534;2023-07-31T00:22:51;1.63;;;0.38;;
48987;SDS011;34799;51.440;-2.534;2023-07-31T00:25:18;3.90;;;0.55;;
48987;SDS011;34799;51.440;-2.534;2023-07-31T00:27:45;1.13;;;0.30;;
48987;SDS011;34799;51.440;-2.534;2023-07-31T00:30:12;2.58;;;0.30;;
48987;SDS011;34799;51.440;-2.534;2023-07-31T00:32:39;0.68;;;0.30;;
48987;SDS011;34799;51.440;-2.534;2023-07-31T00:35:06;0.65;;;0.30;;
48987;SDS011;34799;51.440;-2.534;2023-07-31T00:37:34;2.15;;;0.30;;
48987;SDS011;34799;51.440;-2.534;2023-07-31T00:40:01;1.20;;;0.30;;
48987;SDS011;34799;51.440;-2.534;2023-07-31T00:42:30;2.08;;;0.40;;
48987;SDS011;34799;51.440;-2.534;2023-07-31T00:44:57;4.20;;;0.47;;
48987;SDS011;34799;51.440;-2.534;2023-07-31T00:47:24;1.33;;;0.20;;
48987;SDS011;34799;51.440;-2.534;2023-07-31T00:49:52;2.25;;;0.30;;
48987;SDS011;34799;51.440;-2.534;2023-07-31T00:52:19;1.75;;;0.30;;
48987;SDS011;34799;51.440;-2.534;2023-07-31T00:54:47;3.25;;;0.30;;
48987;SDS011;34799;51.440;-2.534;2023-07-31T00:57:15;0.68;;;0.30;;
48987;SDS011;34799;51.440;-2.534;2023-07-31T00:59:43;0.80;;;0.20;;
48987;SDS011;34799;51.440;-2.534;2023-07-31T01:02:10;1.50;;;0.38;;
48987;SDS011;34799;51.440;-2.534;2023-07-31T01:04:37;2.08;;;0.40;;
48987;SDS011;34799;51.440;-2.534;2023-07-31T01:07:18;3.40;;;0.55;;
48987;SDS011;34799;51.440;-2.534;2023-07-31T01:10:16;1.42;;;0.20;;
48987;SDS011;34799;51.440;-2.534;2023-07-31T01:12:55;2.25;;;0.25;;
48987;SDS011;34799;51.440;-2.534;2023-07-31T01:15:24;1.52;;;0.20;;
48987;SDS011;34799;51.440;-2.534;2023-07-31T01:17:51;0.93;;;0.25;;
48987;SDS011;34799;51.440;-2.534;2023-07-31T01:20:21;0.75;;;0.20;;
48987;SDS011;34799;51.440;-2.534;2023-07-31T01:23:00;1.42;;;0.32;;
48987;SDS011;34799;51.440;-2.534;2023-07-31T01:26:25;0.98;;;0.20;;
48987;SDS011;34799;51.440;-2.534;2023-07-31T01:31:23;0.73;;;0.20;;
48987;SDS011;34799;51.440;-2.534;2023-07-31T01:33:56;0.85;;;0.10;;
48987;SDS011;34799;51.440;-2.534;2023-07-31T01:36:26;0.60;;;0.17;;
48987;SDS011;34799;51.440;-2.534;2023-07-31T01:38:57;0.40;;;0.10;;
48987;SDS011;34799;51.440;-2.534;2023-07-31T01:41:27;0.85;;;0.20;;
48987;SDS011;34799;51.440;-2.534;2023-07-31T01:43:54;2.60;;;0.20;;
48987;SDS011;34799;51.440;-2.534;2023-07-31T01:46:22;0.57;;;0.10;;
48987;SDS011;34799;51.440;-2.534;2023-07-31T01:48:49;2.22;;;0.20;;
48987;SDS011;34799;51.440;-2.534;2023-07-31T01:51:17;1.25;;;0.10;;
48987;SDS011;34799;51.440;-2.534;2023-07-31T01:53:44;1.20;;;0.17;;
48987;SDS011;34799;51.440;-2.534;2023-07-31T01:56:11;3.90;;;0.40;;
48987;SDS011;34799;51.440;-2.534;2023-07-31T01:58:39;0.75;;;0.15;;
48987;SDS011;34799;51.440;-2.534;2023-07-31T02:01:06;1.77;;;0.38;;
48987;SDS011;34799;51.440;-2.534;2023-07-31T02:03:33;0.43;;;0.10;;
48987;SDS011;34799;51.440;-2.534;2023-07-31T02:06:01;2.30;;;0.65;;
48987;SDS011;34799;51.440;-2.534;2023-07-31T02:08:28;0.75;;;0.00;;
48987;SDS011;34799;51.440;-2.534;2023-07-31T02:10:55;0.30;;;0.10;;
48987;SDS011;34799;51.440;-2.534;2023-07-31T02:13:23;0.60;;;0.10;;
48987;SDS011;34799;51.440;-2.534;2023-07-31T02:15:51;0.60;;;0.10;;
48987;SDS011;34799;51.440;-2.534;2023-07-31T02:18:18;0.57;;;0.10;;
48987;SDS011;34799;51.440;-2.534;2023-07-31T02:20:48;0.25;;;0.08;;
48987;SDS011;34799;51.440;-2.534;2023-07-31T02:23:20;0.10;;;0.00;;
48987;SDS011;34799;51.440;-2.534;2023-07-31T02:25:48;1.35;;;0.10;;
48987;SDS011;34799;51.440;-2.534;2023-07-31T02:28:15;1.05;;;0.17;;
48987;SDS011;34799;51.440;-2.534;2023-07-31T02:30:44;4.68;;;0.40;;
48987;SDS011;34799;51.440;-2.534;2023-07-31T02:33:14;3.00;;;0.50;;
48987;SDS011;34799;51.440;-2.534;2023-07-31T02:35:42;3.45;;;0.43;;
48987;SDS011;34799;51.440;-2.534;2023-07-31T02:38:09;4.35;;;0.70;;
48987;SDS011;34799;51.440;-2.534;2023-07-31T02:40:36;3.05;;;0.50;;
48987;SDS011;34799;51.440;-2.534;2023-07-31T02:43:03;6.80;;;0.70;;
48987;SDS011;34799;51.440;-2.534;2023-07-31T02:45:30;11.40;;;0.95;;
48987;SDS011;34799;51.440;-2.534;2023-07-31T02:47:58;9.95;;;0.90;;
48987;SDS011;34799;51.440;-2.534;2023-07-31T02:50:25;13.88;;;1.98;;
48987;SDS011;34799;51.440;-2.534;2023-07-31T02:52:54;9.57;;;1.48;;
48987;SDS011;34799;51.440;-2.534;2023-07-31T02:55:21;11.00;;;1.85;;
48987;SDS011;34799;51.440;-2.534;2023-07-31T02:57:48;10.85;;;1.60;;
48987;SDS011;34799;51.440;-2.534;2023-07-31T03:00:15;11.40;;;1.73;;
48987;SDS011;34799;51.440;-2.534;2023-07-31T03:02:42;12.57;;;2.45;;
48987;SDS011;34799;51.440;-2.534;2023-07-31T03:05:09;13.95;;;1.55;;
48987;SDS011;34799;51.440;-2.534;2023-07-31T03:07:36;12.50;;;1.80;;
48987;SDS011;34799;51.440;-2.534;2023-07-31T03:10:04;12.88;;;2.80;;
48987;SDS011;34799;51.440;-2.534;2023-07-31T03:12:31;13.23;;;2.30;;
48987;SDS011;34799;51.440;-2.534;2023-07-31T03:14:59;12.85;;;1.98;;
48987;SDS011;34799;51.440;-2.534;2023-07-31T03:17:26;11.40;;;1.65;;
48987;SDS011;34799;51.440;-2.534;2023-07-31T03:19:53;12.48;;;2.10;;
48987;SDS011;34799;51.440;-2.534;2023-07-31T03:22:20;11.65;;;2.28;;
48987;SDS011;34799;51.440;-2.534;2023-07-31T03:24:48;12.55;;;2.10;;
48987;SDS011;34799;51.440;-2.534;2023-07-31T03:27:15;13.32;;;1.77;;
48987;SDS011;34799;51.440;-2.534;2023-07-31T03:29:43;14.35;;;1.60;;
48987;SDS011;34799;51.440;-2.534;2023-07-31T03:32:10;7.35;;;1.70;;
48987;SDS011;34799;51.440;-2.534;2023-07-31T03:34:38;8.70;;;1.98;;
48987;SDS011;34799;51.440;-2.534;2023-07-31T03:37:05;13.15;;;1.80;;
48987;SDS011;34799;51.440;-2.534;2023-07-31T03:39:32;9.38;;;1.80;;
48987;SDS011;34799;51.440;-2.534;2023-07-31T03:42:00;10.82;;;2.42;;
48987;SDS011;34799;51.440;-2.534;2023-07-31T03:44:28;12.52;;;2.30;;
48987;SDS011;34799;51.440;-2.534;2023-07-31T03:46:55;9.55;;;1.92;;
48987;SDS011;34799;51.440;-2.534;2023-07-31T03:49:23;10.57;;;1.60;;
48987;SDS011;34799;51.440;-2.534;2023-07-31T03:51:50;10.43;;;1.45;;
48987;SDS011;34799;51.440;-2.534;2023-07-31T03:54:17;6.50;;;2.05;;
48987;SDS011;34799;51.440;-2.534;2023-07-31T03:56:45;9.15;;;1.90;;
48987;SDS011;34799;51.440;-2.534;2023-07-31T03:59:12;11.45;;;1.77;;
48987;SDS011;34799;51.440;-2.534;2023-07-31T04:01:40;10.82;;;3.00;;
48987;SDS011;34799;51.440;-2.534;2023-07-31T04:04:07;14.32;;;2.72;;
48987;SDS011;34799;51.440;-2.534;2023-07-31T04:06:35;12.07;;;2.72;;
48987;SDS011;34799;51.440;-2.534;2023-07-31T04:09:02;9.07;;;2.35;;
48987;SDS011;34799;51.440;-2.534;2023-07-31T04:11:30;13.38;;;2.70;;
48987;SDS011;34799;51.440;-2.534;2023-07-31T04:13:57;8.25;;;1.90;;
48987;SDS011;34799;51.440;-2.534;2023-07-31T04:16:25;12.55;;;2.65;;
48987;SDS011;34799;51.440;-2.534;2023-07-31T04:18:52;9.35;;;2.30;;
48987;SDS011;34799;51.440;-2.534;2023-07-31T04:21:19;10.00;;;2.53;;
48987;SDS011;34799;51.440;-2.534;2023-07-31T04:23:47;11.02;;;2.50;;
48987;SDS011;34799;51.440;-2.534;2023-07-31T04:26:14;11.55;;;2.78;;
48987;SDS011;34799;51.440;-2.534;2023-07-31T04:28:41;11.23;;;2.92;;
48987;SDS011;34799;51.440;-2.534;2023-07-31T04:31:09;10.10;;;2.70;;
48987;SDS011;34799;51.440;-2.534;2023-07-31T04:33:36;11.55;;;3.10;;
48987;SDS011;34799;51.440;-2.534;2023-07-31T04:36:04;8.73;;;2.65;;
48987;SDS011;34799;51.440;-2.534;2023-07-31T04:38:31;12.10;;;3.08;;
48987;SDS011;34799;51.440;-2.534;2023-07-31T04:40:59;10.60;;;2.72;;
48987;SDS011;34799;51.440;-2.534;2023-07-31T04:43:26;12.73;;;2.97;;
48987;SDS011;34799;51.440;-2.534;2023-07-31T04:45:53;11.82;;;3.47;;
48987;SDS011;34799;51.440;-2.534;2023-07-31T04:48:21;10.55;;;3.33;;
48987;SDS011;34799;51.440;-2.534;2023-07-31T04:50:48;16.42;;;3.22;;
48987;SDS011;34799;51.440;-2.534;2023-07-31T04:53:16;20.70;;;3.60;;
48987;SDS011;34799;51.440;-2.534;2023-07-31T04:55:43;15.93;;;3.40;;
48987;SDS011;34799;51.440;-2.534;2023-07-31T04:58:11;9.32;;;2.95;;
48987;SDS011;34799;51.440;-2.534;2023-07-31T05:00:38;10.55;;;3.45;;
48987;SDS011;34799;51.440;-2.534;2023-07-31T05:03:05;8.15;;;3.22;;
48987;SDS011;34799;51.440;-2.534;2023-07-31T05:05:33;12.70;;;3.28;;
48987;SDS011;34799;51.440;-2.534;2023-07-31T05:08:01;10.18;;;2.95;;
48987;SDS011;34799;51.440;-2.534;2023-07-31T05:10:28;11.00;;;3.40;;
48987;SDS011;34799;51.440;-2.534;2023-07-31T05:12:55;12.82;;;3.10;;
48987;SDS011;34799;51.440;-2.534;2023-07-31T05:15:23;12.43;;;3.20;;
48987;SDS011;34799;51.440;-2.534;2023-07-31T05:17:50;7.75;;;2.70;;
48987;SDS011;34799;51.440;-2.534;2023-07-31T05:20:17;15.68;;;3.42;;
48987;SDS011;34799;51.440;-2.534;2023-07-31T05:22:45;12.30;;;3.85;;
48987;SDS011;34799;51.440;-2.534;2023-07-31T05:25:12;9.50;;;2.60;;
48987;SDS011;34799;51.440;-2.534;2023-07-31T05:27:39;12.10;;;3.33;;
48987;SDS011;34799;51.440;-2.534;2023-07-31T05:30:07;14.60;;;3.30;;
48987;SDS011;34799;51.440;-2.534;2023-07-31T05:32:35;12.95;;;2.63;;
48987;SDS011;34799;51.440;-2.534;2023-07-31T05:35:02;12.73;;;2.95;;
48987;SDS011;34799;51.440;-2.534;2023-07-31T05:37:30;10.27;;;3.05;;
48987;SDS011;34799;51.440;-2.534;2023-07-31T05:39:57;8.32;;;2.90;;
48987;SDS011;34799;51.440;-2.534;2023-07-31T05:42:24;8.80;;;2.65;;
48987;SDS011;34799;51.440;-2.534;2023-07-31T05:44:51;8.25;;;2.28;;
48987;SDS011;34799;51.440;-2.534;2023-07-31T05:47:19;6.85;;;2.50;;
48987;SDS011;34799;51.440;-2.534;2023-07-31T05:49:46;10.40;;;2.78;;
48987;SDS011;34799;51.440;-2.534;2023-07-31T05:52:15;6.65;;;2.38;;
48987;SDS011;34799;51.440;-2.534;2023-07-31T05:54:42;10.18;;;2.58;;
48987;SDS011;34799;51.440;-2.534;2023-07-31T05:57:09;9.57;;;3.25;;
48987;SDS011;34799;51.440;-2.534;2023-07-31T05:59:37;6.35;;;2.22;;
48987;SDS011;34799;51.440;-2.534;2023-07-31T06:02:04;13.75;;;3.10;;
48987;SDS011;34799;51.440;-2.534;2023-07-31T06:04:31;8.00;;;2.20;;
48987;SDS011;34799;51.440;-2.534;2023-07-31T06:06:59;8.13;;;2.92;;
48987;SDS011;34799;51.440;-2.534;2023-07-31T06:09:27;8.13;;;2.00;;
48987;SDS011;34799;51.440;-2.534;2023-07-31T06:11:54;9.75;;;2.17;;
48987;SDS011;34799;51.440;-2.534;2023-07-31T06:14:21;6.72;;;2.38;;
48987;SDS011;34799;51.440;-2.534;2023-07-31T06:16:48;7.97;;;2.05;;
48987;SDS011;34799;51.440;-2.534;2023-07-31T06:19:15;9.55;;;2.03;;
48987;SDS011;34799;51.440;-2.534;2023-07-31T06:21:42;6.90;;;1.90;;
48987;SDS011;34799;51.440;-2.534;2023-07-31T06:24:10;9.38;;;2.28;;
48987;SDS011;34799;51.440;-2.534;2023-07-31T06:26:38;6.57;;;1.73;;
48987;SDS011;34799;51.440;-2.534;2023-07-31T06:29:05;10.20;;;1.25;;
48987;SDS011;34799;51.440;-2.534;2023-07-31T06:31:33;6.45;;;1.70;;
48987;SDS011;34799;51.440;-2.534;2023-07-31T06:34:00;7.45;;;1.95;;
48987;SDS011;34799;51.440;-2.534;2023-07-31T06:36:27;8.85;;;1.70;;
48987;SDS011;34799;51.440;-2.534;2023-07-31T06:38:54;8.95;;;1.77;;
48987;SDS011;34799;51.440;-2.534;2023-07-31T06:41:22;9.40;;;1.65;;
48987;SDS011;34799;51.440;-2.534;2023-07-31T06:43:49;6.57;;;1.50;;
48987;SDS011;34799;51.440;-2.534;2023-07-31T06:46:17;3.70;;;1.10;;
48987;SDS011;34799;51.440;-2.534;2023-07-31T06:48:44;8.05;;;1.33;;
48987;SDS011;34799;51.440;-2.534;2023-07-31T06:51:11;6.68;;;1.42;;
48987;SDS011;34799;51.440;-2.534;2023-07-31T06:53:39;5.97;;;1.50;;
48987;SDS011;34799;51.440;-2.534;2023-07-31T06:56:07;8.27;;;1.15;;
48987;SDS011;34799;51.440;-2.534;2023-07-31T06:58:34;5.07;;;1.17;;
48987;SDS011;34799;51.440;-2.534;2023-07-31T07:01:02;8.13;;;1.65;;
48987;SDS011;34799;51.440;-2.534;2023-07-31T07:03:29;8.93;;;1.70;;
48987;SDS011;34799;51.440;-2.534;2023-07-31T07:05:57;11.13;;;1.90;;
48987;SDS011;34799;51.440;-2.534;2023-07-31T07:08:24;7.47;;;1.27;;
48987;SDS011;34799;51.440;-2.534;2023-07-31T07:10:52;6.47;;;1.30;;
48987;SDS011;34799;51.440;-2.534;2023-07-31T07:13:20;6.53;;;1.00;;
48987;SDS011;34799;51.440;-2.534;2023-07-31T07:15:48;3.88;;;1.00;;
48987;SDS011;34799;51.440;-2.534;2023-07-31T07:18:16;6.35;;;1.00;;
48987;SDS011;34799;51.440;-2.534;2023-07-31T07:20:47;5.60;;;1.00;;
48987;SDS011;34799;51.440;-2.534;2023-07-31T07:23:18;4.88;;;1.10;;
48987;SDS011;34799;51.440;-2.534;2023-07-31T07:25:45;5.63;;;1.10;;
48987;SDS011;34799;51.440;-2.534;2023-07-31T07:28:13;5.88;;;0.95;;
48987;SDS011;34799;51.440;-2.534;2023-07-31T07:30:42;4.00;;;0.93;;
48987;SDS011;34799;51.440;-2.534;2023-07-31T07:33:09;4.97;;;0.77;;
48987;SDS011;34799;51.440;-2.534;2023-07-31T07:35:36;4.45;;;1.33;;
48987;SDS011;34799;51.440;-2.534;2023-07-31T07:38:03;1.60;;;0.57;;
48987;SDS011;34799;51.440;-2.534;2023-07-31T07:40:30;4.90;;;0.60;;
48987;SDS011;34799;51.440;-2.534;2023-07-31T07:42:57;1.95;;;0.55;;
48987;SDS011;34799;51.440;-2.534;2023-07-31T07:45:26;3.00;;;0.82;;
48987;SDS011;34799;51.440;-2.534;2023-07-31T07:47:53;2.28;;;0.50;;
48987;SDS011;34799;51.440;-2.534;2023-07-31T07:50:20;3.38;;;0.60;;
48987;SDS011;34799;51.440;-2.534;2023-07-31T07:52:47;3.58;;;0.60;;
48987;SDS011;34799;51.440;-2.534;2023-07-31T07:55:14;3.42;;;0.60;;
48987;SDS011;34799;51.440;-2.534;2023-07-31T07:57:41;4.53;;;1.15;;
48987;SDS011;34799;51.440;-2.534;2023-07-31T08:00:11;4.40;;;0.60;;
48987;SDS011;34799;51.440;-2.534;2023-07-31T08:02:39;3.40;;;0.85;;
48987;SDS011;34799;51.440;-2.534;2023-07-31T08:05:06;4.85;;;0.77;;
48987;SDS011;34799;51.440;-2.534;2023-07-31T08:07:34;2.92;;;0.52;;
48987;SDS011;34799;51.440;-2.534;2023-07-31T08:10:01;4.93;;;0.60;;
48987;SDS011;34799;51.440;-2.534;2023-07-31T08:12:29;5.75;;;0.70;;
48987;SDS011;34799;51.440;-2.534;2023-07-31T08:14:56;4.80;;;0.70;;
48987;SDS011;34799;51.440;-2.534;2023-07-31T08:17:23;3.97;;;0.80;;
48987;SDS011;34799;51.440;-2.534;2023-07-31T08:19:50;7.45;;;0.88;;
48987;SDS011;34799;51.440;-2.534;2023-07-31T08:22:17;2.83;;;1.45;;
48987;SDS011;34799;51.440;-2.534;2023-07-31T08:24:44;3.40;;;0.55;;
48987;SDS011;34799;51.440;-2.534;2023-07-31T08:27:11;2.58;;;0.70;;
48987;SDS011;34799;51.440;-2.534;2023-07-31T08:29:38;2.20;;;0.50;;
48987;SDS011;34799;51.440;-2.534;2023-07-31T08:32:06;3.05;;;0.70;;
48987;SDS011;34799;51.440;-2.534;2023-07-31T08:34:33;5.35;;;0.93;;
48987;SDS011;34799;51.440;-2.534;2023-07-31T08:37:00;4.88;;;0.73;;
48987;SDS011;34799;51.440;-2.534;2023-07-31T08:39:27;5.85;;;0.80;;
48987;SDS011;34799;51.440;-2.534;2023-07-31T08:41:58;2.72;;;0.73;;
48987;SDS011;34799;51.440;-2.534;2023-07-31T08:44:26;8.02;;;1.75;;
48987;SDS011;34799;51.440;-2.534;2023-07-31T08:46:53;4.55;;;1.10;;
48987;SDS011;34799;51.440;-2.534;2023-07-31T08:49:21;7.15;;;1.52;;
48987;SDS011;34799;51.440;-2.534;2023-07-31T08:51:50;4.05;;;1.45;;
48987;SDS011;34799;51.440;-2.534;2023-07-31T08:54:21;7.72;;;1.08;;
48987;SDS011;34799;51.440;-2.534;2023-07-31T08:56:48;6.85;;;1.73;;
48987;SDS011;34799;51.440;-2.534;2023-07-31T08:59:17;7.43;;;1.77;;
48987;SDS011;34799;51.440;-2.534;2023-07-31T09:01:47;12.75;;;2.35;;
48987;SDS011;34799;51.440;-2.534;2023-07-31T09:04:16;13.60;;;2.05;;
48987;SDS011;34799;51.440;-2.534;2023-07-31T09:06:46;16.75;;;1.83;;
48987;SDS011;34799;51.440;-2.534;2023-07-31T09:09:15;12.88;;;2.40;;
48987;SDS011;34799;51.440;-2.534;2023-07-31T09:11:43;17.58;;;3.33;;
48987;SDS011;34799;51.440;-2.534;2023-07-31T09:14:10;15.68;;;2.95;;
48987;SDS011;34799;51.440;-2.534;2023-07-31T09:16:51;11.70;;;2.80;;
48987;SDS011;34799;51.440;-2.534;2023-07-31T09:19:26;15.40;;;3.08;;
48987;SDS011;34799;51.440;-2.534;2023-07-31T09:21:55;16.45;;;3.45;;
48987;SDS011;34799;51.440;-2.534;2023-07-31T09:24:29;19.08;;;3.58;;
48987;SDS011;34799;51.440;-2.534;2023-07-31T09:26:58;19.00;;;3.50;;
48987;SDS011;34799;51.440;-2.534;2023-07-31T09:29:27;14.13;;;2.65;;
48987;SDS011;34799;51.440;-2.534;2023-07-31T09:31:57;14.10;;;3.17;;
48987;SDS011;34799;51.440;-2.534;2023-07-31T09:34:37;15.68;;;3.22;;
48987;SDS011;34799;51.440;-2.534;2023-07-31T09:37:08;16.75;;;4.13;;
48987;SDS011;34799;51.440;-2.534;2023-07-31T09:39:47;16.73;;;3.83;;
48987;SDS011;34799;51.440;-2.534;2023-07-31T09:42:25;12.82;;;3.28;;
48987;SDS011;34799;51.440;-2.534;2023-07-31T09:44:53;15.05;;;2.97;;
48987;SDS011;34799;51.440;-2.534;2023-07-31T09:47:24;20.85;;;3.60;;
48987;SDS011;34799;51.440;-2.534;2023-07-31T09:49:52;19.42;;;4.00;;
48987;SDS011;34799;51.440;-2.534;2023-07-31T09:52:19;14.52;;;3.42;;
48987;SDS011;34799;51.440;-2.534;2023-07-31T09:54:46;14.40;;;3.25;;
48987;SDS011;34799;51.440;-2.534;2023-07-31T09:57:13;14.77;;;3.83;;
48987;SDS011;34799;51.440;-2.534;2023-07-31T09:59:43;15.32;;;3.97;;
48987;SDS011;34799;51.440;-2.534;2023-07-31T10:02:14;14.20;;;3.03;;
48987;SDS011;34799;51.440;-2.534;2023-07-31T10:04:46;18.17;;;3.20;;
48987;SDS011;34799;51.440;-2.534;2023-07-31T10:07:17;15.18;;;3.28;;
48987;SDS011;34799;51.440;-2.534;2023-07-31T10:09:46;10.15;;;2.95;;
48987;SDS011;34799;51.440;-2.534;2023-07-31T10:12:14;14.02;;;3.40;;
48987;SDS011;34799;51.440;-2.534;2023-07-31T10:14:45;11.27;;;3.45;;
48987;SDS011;34799;51.440;-2.534;2023-07-31T10:17:12;15.30;;;3.13;;
48987;SDS011;34799;51.440;-2.534;2023-07-31T10:19:41;13.98;;;3.63;;
48987;SDS011;34799;51.440;-2.534;2023-07-31T10:22:10;14.02;;;3.20;;
48987;SDS011;34799;51.440;-2.534;2023-07-31T10:24:40;20.35;;;3.15;;
48987;SDS011;34799;51.440;-2.534;2023-07-31T10:27:09;16.20;;;3.47;;
48987;SDS011;34799;51.440;-2.534;2023-07-31T10:29:37;16.13;;;3.50;;
48987;SDS011;34799;51.440;-2.534;2023-07-31T10:32:06;17.00;;;3.83;;
48987;SDS011;34799;51.440;-2.534;2023-07-31T10:34:38;16.33;;;3.45;;
48987;SDS011;34799;51.440;-2.534;2023-07-31T10:40:10;14.38;;;3.22;;
48987;SDS011;34799;51.440;-2.534;2023-07-31T10:42:46;15.35;;;3.67;;
48987;SDS011;34799;51.440;-2.534;2023-07-31T10:45:31;15.10;;;3.25;;
48987;SDS011;34799;51.440;-2.534;2023-07-31T10:47:59;13.95;;;3.17;;
48987;SDS011;34799;51.440;-2.534;2023-07-31T10:50:32;22.27;;;4.00;;
48987;SDS011;34799;51.440;-2.534;2023-07-31T10:53:04;15.13;;;3.40;;
48987;SDS011;34799;51.440;-2.534;2023-07-31T10:55:38;17.38;;;3.03;;
48987;SDS011;34799;51.440;-2.534;2023-07-31T10:58:10;12.80;;;3.08;;
48987;SDS011;34799;51.440;-2.534;2023-07-31T11:00:42;17.88;;;3.22;;
48987;SDS011;34799;51.440;-2.534;2023-07-31T11:03:18;13.98;;;3.42;;
48987;SDS011;34799;51.440;-2.534;2023-07-31T11:08:32;13.32;;;3.30;;
48987;SDS011;34799;51.440;-2.534;2023-07-31T11:13:49;13.45;;;3.08;;
48987;SDS011;34799;51.440;-2.534;2023-07-31T11:16:24;14.75;;;2.92;;
48987;SDS011;34799;51.440;-2.534;2023-07-31T11:18:53;18.38;;;3.95;;
48987;SDS011;34799;51.440;-2.534;2023-07-31T11:21:22;13.43;;;3.45;;
48987;SDS011;34799;51.440;-2.534;2023-07-31T11:23:51;19.92;;;3.83;;
48987;SDS011;34799;51.440;-2.534;2023-07-31T11:26:19;13.98;;;3.28;;
48987;SDS011;34799;51.440;-2.534;2023-07-31T11:28:47;14.32;;;2.90;;
48987;SDS011;34799;51.440;-2.534;2023-07-31T11:31:15;14.07;;;3.25;;
48987;SDS011;34799;51.440;-2.534;2023-07-31T11:33:42;15.70;;;3.45;;
48987;SDS011;34799;51.440;-2.534;2023-07-31T11:36:16;17.73;;;3.70;;
48987;SDS011;34799;51.440;-2.534;2023-07-31T11:38:44;18.67;;;4.40;;
48987;SDS011;34799;51.440;-2.534;2023-07-31T11:41:13;19.15;;;3.53;;
48987;SDS011;34799;51.440;-2.534;2023-07-31T11:43:41;17.00;;;3.13;;
48987;SDS011;34799;51.440;-2.534;2023-07-31T11:46:09;14.60;;;3.47;;
48987;SDS011;34799;51.440;-2.534;2023-07-31T11:48:36;17.45;;;3.40;;
48987;SDS011;34799;51.440;-2.534;2023-07-31T11:51:09;16.25;;;3.58;;
48987;SDS011;34799;51.440;-2.534;2023-07-31T11:53:42;16.27;;;3.58;;
48987;SDS011;34799;51.440;-2.534;2023-07-31T11:56:18;13.27;;;3.20;;
48987;SDS011;34799;51.440;-2.534;2023-07-31T11:58:57;12.68;;;3.55;;
48987;SDS011;34799;51.440;-2.534;2023-07-31T12:01:28;15.45;;;2.95;;
48987;SDS011;34799;51.440;-2.534;2023-07-31T12:03:56;15.00;;;3.30;;
48987;SDS011;34799;51.440;-2.534;2023-07-31T12:06:33;15.80;;;3.25;;
48987;SDS011;34799;51.440;-2.534;2023-07-31T12:09:02;13.27;;;3.42;;
48987;SDS011;34799;51.440;-2.534;2023-07-31T12:11:30;14.48;;;3.42;;
48987;SDS011;34799;51.440;-2.534;2023-07-31T12:13:57;10.27;;;2.60;;
48987;SDS011;34799;51.440;-2.534;2023-07-31T12:16:26;12.38;;;2.65;;
48987;SDS011;34799;51.440;-2.534;2023-07-31T12:18:55;12.73;;;3.45;;
48987;SDS011;34799;51.440;-2.534;2023-07-31T12:21:24;13.98;;;3.45;;
48987;SDS011;34799;51.440;-2.534;2023-07-31T12:23:53;13.75;;;2.90;;
48987;SDS011;34799;51.440;-2.534;2023-07-31T12:26:21;16.20;;;3.80;;
48987;SDS011;34799;51.440;-2.534;2023-07-31T12:28:50;13.20;;;4.05;;
48987;SDS011;34799;51.440;-2.534;2023-07-31T12:31:18;11.98;;;3.42;;
48987;SDS011;34799;51.440;-2.534;2023-07-31T12:33:47;12.93;;;3.75;;
48987;SDS011;34799;51.440;-2.534;2023-07-31T12:36:22;17.15;;;4.72;;
48987;SDS011;34799;51.440;-2.534;2023-07-31T12:38:50;13.02;;;3.22;;
48987;SDS011;34799;51.440;-2.534;2023-07-31T12:41:18;13.57;;;4.43;;
48987;SDS011;34799;51.440;-2.534;2023-07-31T12:43:45;10.95;;;3.20;;
48987;SDS011;34799;51.440;-2.534;2023-07-31T12:46:12;10.98;;;3.17;;
48987;SDS011;34799;51.440;-2.534;2023-07-31T12:48:40;14.07;;;3.42;;
48987;SDS011;34799;51.440;-2.534;2023-07-31T12:51:09;14.55;;;3.72;;
48987;SDS011;34799;51.440;-2.534;2023-07-31T12:53:37;14.88;;;3.53;;
48987;SDS011;34799;51.440;-2.534;2023-07-31T12:56:06;13.95;;;2.97;;
48987;SDS011;34799;51.440;-2.534;2023-07-31T12:58:34;12.23;;;3.22;;
48987;SDS011;34799;51.440;-2.534;2023-07-31T13:01:01;15.23;;;4.50;;
48987;SDS011;34799;51.440;-2.534;2023-07-31T13:03:29;10.77;;;3.15;;
48987;SDS011;34799;51.440;-2.534;2023-07-31T13:05:56;10.20;;;3.47;;
48987;SDS011;34799;51.440;-2.534;2023-07-31T13:08:24;16.38;;;2.90;;
48987;SDS011;34799;51.440;-2.534;2023-07-31T13:10:51;14.65;;;3.53;;
48987;SDS011;34799;51.440;-2.534;2023-07-31T13:13:18;12.48;;;3.45;;
48987;SDS011;34799;51.440;-2.534;2023-07-31T13:15:46;10.35;;;3.05;;
48987;SDS011;34799;51.440;-2.534;2023-07-31T13:18:13;12.82;;;2.78;;
48987;SDS011;34799;51.440;-2.534;2023-07-31T13:20:41;13.80;;;2.65;;
48987;SDS011;34799;51.440;-2.534;2023-07-31T13:23:08;11.57;;;3.80;;
48987;SDS011;34799;51.440;-2.534;2023-07-31T13:25:36;11.70;;;3.80;;
48987;SDS011;34799;51.440;-2.534;2023-07-31T13:28:03;12.55;;;3.53;;
48987;SDS011;34799;51.440;-2.534;2023-07-31T13:30:31;10.60;;;3.05;;
48987;SDS011;34799;51.440;-2.534;2023-07-31T13:32:58;14.52;;;3.10;;
48987;SDS011;34799;51.440;-2.534;2023-07-31T13:35:26;11.00;;;2.97;;
48987;SDS011;34799;51.440;-2.534;2023-07-31T13:37:53;11.90;;;3.03;;
48987;SDS011;34799;51.440;-2.534;2023-07-31T13:40:21;9.88;;;2.88;;
48987;SDS011;34799;51.440;-2.534;2023-07-31T13:42:49;12.23;;;2.97;;
48987;SDS011;34799;51.440;-2.534;2023-07-31T13:45:16;8.85;;;3.58;;
48987;SDS011;34799;51.440;-2.534;2023-07-31T13:47:43;13.25;;;3.45;;
48987;SDS011;34799;51.440;-2.534;2023-07-31T13:50:10;10.55;;;3.00;;
48987;SDS011;34799;51.440;-2.534;2023-07-31T13:52:38;9.95;;;2.67;;
48987;SDS011;34799;51.440;-2.534;2023-07-31T13:55:06;12.18;;;3.38;;
48987;SDS011;34799;51.440;-2.534;2023-07-31T13:57:33;9.57;;;2.80;;
48987;SDS011;34799;51.440;-2.534;2023-07-31T14:00:01;11.90;;;3.22;;
48987;SDS011;34799;51.440;-2.534;2023-07-31T14:02:30;13.65;;;3.92;;
48987;SDS011;34799;51.440;-2.534;2023-07-31T14:04:57;10.82;;;3.20;;
48987;SDS011;34799;51.440;-2.534;2023-07-31T14:07:24;9.75;;;2.67;;
48987;SDS011;34799;51.440;-2.534;2023-07-31T14:09:51;8.68;;;3.10;;
48987;SDS011;34799;51.440;-2.534;2023-07-31T14:12:18;12.55;;;3.50;;
48987;SDS011;34799;51.440;-2.534;2023-07-31T14:14:57;12.90;;;3.33;;
48987;SDS011;34799;51.440;-2.534;2023-07-31T14:17:24;9.50;;;2.72;;
48987;SDS011;34799;51.440;-2.534;2023-07-31T14:19:51;10.18;;;2.90;;
48987;SDS011;34799;51.440;-2.534;2023-07-31T14:22:28;8.73;;;3.20;;
48987;SDS011;34799;51.440;-2.534;2023-07-31T14:24:56;13.10;;;2.63;;
48987;SDS011;34799;51.440;-2.534;2023-07-31T14:27:23;11.13;;;3.40;;
48987;SDS011;34799;51.440;-2.534;2023-07-31T14:29:51;13.13;;;2.35;;
48987;SDS011;34799;51.440;-2.534;2023-07-31T14:32:18;6.97;;;1.67;;
48987;SDS011;34799;51.440;-2.534;2023-07-31T14:34:45;6.82;;;2.08;;
48987;SDS011;34799;51.440;-2.534;2023-07-31T14:37:12;5.22;;;1.88;;
48987;SDS011;34799;51.440;-2.534;2023-07-31T14:39:39;7.53;;;1.48;;
48987;SDS011;34799;51.440;-2.534;2023-07-31T14:42:06;5.88;;;2.03;;
48987;SDS011;34799;51.440;-2.534;2023-07-31T14:44:33;6.20;;;1.70;;
48987;SDS011;34799;51.440;-2.534;2023-07-31T14:47:01;6.47;;;1.60;;